Time;durP1;ratioP1;P1;durP2;ratioP2;P2;SDS_P1;SDS_P2;PMS_P1;PMS_P2;Temp;Humidity;BMP_temperature;BMP_pressure;BME280_temperature;BME280_humidity;BME280_pressure;Samples;Min_cycle;Max_cycle;Signal;HPM_P1;HPM_P2
2021/04/28 00:07:33;;;;;;;6.65;2.70;;;8.60;93.00;;;;;;6652100;88;20224;-77
2021/04/28 00:17:34;;;;;;;7.10;2.75;;;8.40;94.40;;;;;;6651808;89;20230;-77
2021/04/28 00:27:36;;;;;;;4.82;2.70;;;8.20;95.80;;;;;;6651226;89;20323;-76
2021/04/28 00:37:37;;;;;;;5.47;2.30;;;7.90;97.50;;;;;;6648882;89;20188;-75
2021/04/28 00:47:38;;;;;;;6.07;2.20;;;8.10;97.90;;;;;;6651131;89;20196;-75
2021/04/28 00:57:38;;;;;;;4.60;2.35;;;8.00;98.60;;;;;;6655731;89;20216;-75
2021/04/28 01:07:40;;;;;;;6.85;2.30;;;7.80;99.40;;;;;;6653231;89;21000;-75
2021/04/28 01:17:41;;;;;;;7.22;2.58;;;7.70;99.90;;;;;;6656258;89;20204;-75
2021/04/28 01:27:54;;;;;;;4.93;2.15;;;7.50;99.90;;;;;;6652244;88;20326;-75
2021/04/28 01:37:56;;;;;;;7.07;2.78;;;7.30;99.90;;;;;;6648292;89;20365;-75
2021/04/28 01:47:57;;;;;;;5.12;2.37;;;7.30;99.90;;;;;;6650547;89;20214;-75
2021/04/28 01:58:02;;;;;;;4.47;2.35;;;7.10;99.90;;;;;;6649790;89;20254;-76
2021/04/28 02:08:04;;;;;;;5.10;2.28;;;7.00;99.90;;;;;;6650587;89;21079;-76
2021/04/28 02:18:06;;;;;;;5.25;2.33;;;6.80;99.90;;;;;;6648462;89;20689;-75
2021/04/28 02:28:06;;;;;;;5.12;2.30;;;6.80;99.90;;;;;;6650336;89;20184;-76
2021/04/28 02:38:34;;;;;;;4.75;2.35;;;6.90;99.90;;;;;;6660309;89;20225;-76
2021/04/28 02:48:34;;;;;;;6.05;2.58;;;6.70;99.90;;;;;;6662188;89;20504;-79
2021/04/28 02:58:37;;;;;;;5.10;2.25;;;6.50;99.90;;;;;;6645621;89;20206;-77
2021/04/28 03:08:38;;;;;;;6.00;2.42;;;6.40;99.90;;;;;;6646673;89;20181;-76
2021/04/28 03:18:38;;;;;;;9.07;4.37;;;6.40;99.90;;;;;;6650413;89;20200;-76
2021/04/28 03:28:39;;;;;;;7.62;3.10;;;6.20;99.90;;;;;;6646260;89;20234;-77
2021/04/28 03:38:40;;;;;;;5.47;2.87;;;6.20;99.90;;;;;;6642493;89;20224;-76
2021/04/28 03:48:40;;;;;;;6.55;2.80;;;6.00;99.90;;;;;;6642329;89;20189;-76
2021/04/28 03:58:41;;;;;;;5.87;2.92;;;6.00;99.90;;;;;;6645930;89;20251;-76
2021/04/28 04:08:42;;;;;;;6.60;3.17;;;6.10;99.90;;;;;;6643860;89;20301;-77
2021/04/28 04:18:42;;;;;;;7.97;3.20;;;6.10;99.90;;;;;;6645077;89;20218;-76
2021/04/28 04:28:43;;;;;;;7.07;3.37;;;6.00;99.90;;;;;;6642916;89;20260;-76
2021/04/28 04:38:43;;;;;;;5.35;3.30;;;5.90;99.90;;;;;;6645916;89;20327;-76
2021/04/28 04:48:44;;;;;;;7.20;3.05;;;5.70;99.90;;;;;;6647312;88;20368;-76
2021/04/28 04:58:44;;;;;;;4.93;3.00;;;5.70;99.90;;;;;;6643347;89;20200;-76
2021/04/28 05:08:45;;;;;;;13.07;3.72;;;5.70;99.90;;;;;;6645380;89;20204;-78
2021/04/28 05:18:45;;;;;;;9.27;3.95;;;5.60;99.90;;;;;;6642914;89;20225;-77
2021/04/28 05:28:46;;;;;;;8.40;3.50;;;5.80;99.90;;;;;;6648782;89;20207;-76
2021/04/28 05:38:47;;;;;;;9.68;3.78;;;6.00;99.90;;;;;;6649550;88;20520;-75
2021/04/28 05:48:48;;;;;;;8.85;3.97;;;6.30;99.90;;;;;;6649350;89;20587;-77
2021/04/28 05:58:48;;;;;;;8.13;3.90;;;7.10;99.90;;;;;;6649061;89;20258;-77
2021/04/28 06:08:50;;;;;;;9.73;4.40;;;7.80;99.90;;;;;;6651452;89;20208;-78
2021/04/28 06:18:51;;;;;;;7.47;4.12;;;8.50;99.90;;;;;;6648181;89;20266;-77
2021/04/28 06:28:51;;;;;;;7.07;4.60;;;9.10;99.90;;;;;;6650963;88;20177;-79
2021/04/28 06:38:52;;;;;;;11.70;4.30;;;9.70;99.90;;;;;;6651102;89;20790;-76
2021/04/28 06:48:53;;;;;;;10.68;4.57;;;10.50;99.90;;;;;;6650529;88;20501;-78
2021/04/28 06:58:53;;;;;;;12.55;4.32;;;10.90;99.90;;;;;;6649647;89;20181;-80
2021/04/28 07:08:54;;;;;;;8.52;4.22;;;11.60;98.20;;;;;;6652813;89;20209;-77
2021/04/28 07:18:55;;;;;;;10.73;4.75;;;12.00;96.40;;;;;;6648006;89;20312;-77
2021/04/28 07:28:56;;;;;;;17.77;5.30;;;12.90;94.80;;;;;;6649405;89;20221;-76
2021/04/28 07:38:57;;;;;;;8.13;4.65;;;13.20;90.70;;;;;;6645358;89;20543;-78
2021/04/28 07:49:04;;;;;;;9.98;4.72;;;13.80;88.10;;;;;;6645797;89;20222;-77
2021/04/28 07:59:04;;;;;;;10.75;4.37;;;14.00;86.00;;;;;;6652575;89;20616;-77
2021/04/28 08:09:06;;;;;;;10.75;4.82;;;14.60;81.50;;;;;;6653413;89;20204;-77
2021/04/28 08:19:07;;;;;;;9.98;4.53;;;14.90;77.80;;;;;;6654941;88;20193;-78
2021/04/28 08:29:07;;;;;;;10.80;5.10;;;15.00;76.90;;;;;;6664521;88;20222;-77
2021/04/28 08:39:08;;;;;;;6.97;4.40;;;15.60;75.10;;;;;;6654178;89;20214;-78
2021/04/28 08:49:09;;;;;;;11.05;5.00;;;16.70;71.30;;;;;;6655090;89;20184;-78
2021/04/28 08:59:09;;;;;;;11.35;4.95;;;16.70;69.90;;;;;;6650422;89;20322;-78
2021/04/28 09:09:14;;;;;;;9.80;4.90;;;17.50;66.70;;;;;;6654367;89;20193;-79
2021/04/28 09:19:19;;;;;;;;;;;18.90;65.60;;;;;;6657808;89;20191;-78
2021/04/28 09:29:23;;;;;;;10.32;5.60;;;20.40;61.90;;;;;;6656254;88;20563;-76
2021/04/28 09:39:23;;;;;;;11.50;5.87;;;20.30;60.30;;;;;;6655427;89;20302;-79
2021/04/28 09:49:50;;;;;;;17.52;7.05;;;20.80;60.10;;;;;;6654990;88;20241;-77
2021/04/28 09:59:52;;;;;;;10.50;5.57;;;22.80;56.20;;;;;;6652100;89;20289;-78
2021/04/28 10:09:55;;;;;;;11.82;6.28;;;23.20;54.50;;;;;;6655082;88;20724;-77
2021/04/28 10:19:57;;;;;;;14.70;6.05;;;23.40;52.10;;;;;;6649459;89;20215;-79
2021/04/28 10:29:59;;;;;;;17.17;6.12;;;25.50;48.00;;;;;;6647402;88;20279;-78
2021/04/28 10:40:00;;;;;;;10.45;5.72;;;26.10;47.00;;;;;;6649230;88;20205;-75
2021/04/28 10:50:05;;;;;;;12.75;6.12;;;25.00;46.40;;;;;;6638530;89;20709;-74
2021/04/28 11:00:20;;;;;;;10.57;6.03;;;25.20;46.20;;;;;;6641282;88;20229;-73
2021/04/28 11:10:36;;;;;;;9.57;5.85;;;26.90;44.20;;;;;;6633912;88;20342;-74
2021/04/28 11:20:36;;;;;;;10.02;5.65;;;24.60;43.10;;;;;;6632674;88;20201;-74
2021/04/28 11:30:42;;;;;;;11.38;5.82;;;24.20;43.90;;;;;;6643315;89;20201;-77
2021/04/28 11:41:01;;;;;;;10.77;5.97;;;24.70;44.40;;;;;;6645204;89;20244;-76
2021/04/28 11:51:09;;;;;;;12.68;6.68;;;23.40;44.80;;;;;;6650375;89;20169;-78
2021/04/28 12:01:13;;;;;;;9.77;6.37;;;25.30;41.90;;;;;;6650131;89;20280;-77
2021/04/28 12:11:17;;;;;;;10.13;5.97;;;26.50;42.00;;;;;;6650236;89;20196;-78
2021/04/28 12:21:17;;;;;;;9.47;5.50;;;24.50;40.90;;;;;;6649560;89;20233;-79
2021/04/28 12:31:45;;;;;;;8.27;5.47;;;24.00;40.00;;;;;;6642637;88;20685;-78
2021/04/28 12:41:45;;;;;;;7.97;5.30;;;24.00;41.70;;;;;;6644095;88;20312;-77
2021/04/28 12:51:50;;;;;;;8.57;6.05;;;24.70;41.10;;;;;;6645867;89;20372;-77
2021/04/28 13:02:04;;;;;;;9.40;5.50;;;24.70;42.80;;;;;;6646060;88;20224;-76
2021/04/28 13:12:05;;;;;;;10.00;5.80;;;23.70;40.70;;;;;;6644985;89;20705;-76
2021/04/28 13:22:13;;;;;;;9.07;5.27;;;23.40;41.30;;;;;;6648501;88;20196;-76
2021/04/28 13:32:42;;;;;;;9.00;5.32;;;22.80;42.80;;;;;;6644539;89;20533;-75
2021/04/28 13:42:42;;;;;;;7.90;5.15;;;23.70;41.10;;;;;;6650043;89;20199;-77
2021/04/28 13:52:43;;;;;;;11.50;5.25;;;23.90;39.40;;;;;;6650963;88;20207;-78
2021/04/28 14:02:45;;;;;;;11.63;5.70;;;25.20;37.20;;;;;;6652754;88;20189;-78
2021/04/28 14:12:45;;;;;;;16.10;5.65;;;23.60;41.50;;;;;;6652517;89;20520;-78
2021/04/28 14:22:46;;;;;;;17.23;5.78;;;24.80;42.40;;;;;;6652956;89;20188;-78
2021/04/28 14:32:46;;;;;;;9.32;4.45;;;23.10;43.30;;;;;;6651983;88;20203;-77
2021/04/28 14:42:47;;;;;;;10.85;4.57;;;23.70;43.60;;;;;;6650647;88;20216;-76
2021/04/28 14:52:47;;;;;;;17.05;4.30;;;23.80;42.90;;;;;;6655201;88;21026;-77
2021/04/28 15:02:48;;;;;;;12.18;4.45;;;24.30;42.30;;;;;;6641670;88;20239;-77
2021/04/28 15:12:49;;;;;;;16.13;4.23;;;23.70;43.20;;;;;;6646666;89;20188;-76
2021/04/28 15:22:49;;;;;;;9.98;4.22;;;23.60;42.40;;;;;;6651341;89;20188;-78
2021/04/28 15:32:50;;;;;;;15.50;4.00;;;23.40;42.30;;;;;;6645861;88;20337;-74
2021/04/28 15:42:50;;;;;;;7.10;3.90;;;23.20;43.80;;;;;;6651830;88;20232;-77
2021/04/28 15:52:51;;;;;;;7.82;3.45;;;23.00;44.40;;;;;;6664066;88;20523;-78
2021/04/28 16:02:55;;;;;;;5.62;3.40;;;22.70;44.10;;;;;;6649211;89;20261;-79
2021/04/28 16:12:56;;;;;;;7.28;3.30;;;22.50;44.60;;;;;;6644068;88;20678;-75
2021/04/28 16:22:56;;;;;;;6.12;3.50;;;22.20;45.30;;;;;;6645636;89;20191;-75
2021/04/28 16:32:57;;;;;;;8.25;2.95;;;22.20;44.80;;;;;;6642616;89;20198;-75
2021/04/28 16:42:58;;;;;;;6.40;3.30;;;21.90;44.80;;;;;;6647463;88;20226;-74
2021/04/28 16:52:58;;;;;;;9.18;3.40;;;21.70;44.90;;;;;;6641259;89;20173;-75
2021/04/28 17:02:59;;;;;;;8.70;3.22;;;21.50;45.10;;;;;;6645258;89;20209;-75
2021/04/28 17:12:59;;;;;;;5.27;2.47;;;21.30;42.80;;;;;;6640774;88;20354;-74
2021/04/28 17:23:00;;;;;;;6.00;2.20;;;20.90;44.00;;;;;;6639539;88;21138;-75
2021/04/28 17:33:01;;;;;;;3.83;1.75;;;20.60;44.60;;;;;;6643804;89;20228;-74
2021/04/28 17:43:01;;;;;;;6.50;2.62;;;20.40;45.10;;;;;;6639334;88;20267;-74
2021/04/28 17:53:02;;;;;;;7.47;2.57;;;20.20;45.40;;;;;;6638636;89;20263;-75
2021/04/28 18:03:03;;;;;;;6.47;1.60;;;19.90;46.50;;;;;;6646207;89;20326;-76
2021/04/28 18:13:03;;;;;;;4.20;2.10;;;19.80;45.00;;;;;;6653614;88;20538;-75
2021/04/28 18:23:04;;;;;;;3.30;1.75;;;19.50;44.90;;;;;;6657814;88;20192;-74
2021/04/28 18:33:05;;;;;;;3.55;1.40;;;19.30;45.70;;;;;;6651025;88;20197;-75
2021/04/28 18:43:05;;;;;;;6.55;1.62;;;19.10;46.20;;;;;;6652626;89;20217;-75
2021/04/28 18:53:06;;;;;;;5.62;1.37;;;18.80;47.50;;;;;;6649557;89;20263;-76
2021/04/28 19:03:07;;;;;;;3.22;1.58;;;18.60;47.30;;;;;;6648687;89;20231;-76
2021/04/28 19:13:07;;;;;;;3.13;1.47;;;18.40;48.90;;;;;;6648135;89;20303;-75
2021/04/28 19:23:09;;;;;;;5.62;1.85;;;18.30;49.10;;;;;;6648322;89;20742;-75
2021/04/28 19:33:09;;;;;;;5.15;1.83;;;18.20;51.80;;;;;;6648907;89;20200;-76
2021/04/28 19:43:10;;;;;;;5.57;1.87;;;17.80;55.70;;;;;;6644835;89;20208;-75
2021/04/28 19:53:10;;;;;;;4.78;1.80;;;17.50;55.90;;;;;;6645479;89;20241;-75
2021/04/28 20:03:11;;;;;;;4.45;1.80;;;17.20;56.70;;;;;;6646063;89;20220;-75
2021/04/28 20:13:12;;;;;;;5.07;1.55;;;17.10;57.30;;;;;;6650788;89;20227;-76
2021/04/28 20:23:12;;;;;;;4.37;1.62;;;16.90;57.70;;;;;;6649289;89;20208;-75
2021/04/28 20:33:17;;;;;;;3.22;1.77;;;16.70;58.10;;;;;;6652883;89;20281;-75
2021/04/28 20:43:19;;;;;;;2.97;1.45;;;16.60;59.10;;;;;;6643011;89;20628;-75
2021/04/28 20:53:19;;;;;;;4.95;1.52;;;16.50;59.10;;;;;;6647314;89;20208;-75
2021/04/28 21:03:20;;;;;;;3.90;1.60;;;16.50;59.30;;;;;;6649613;89;20213;-75
2021/04/28 21:13:20;;;;;;;2.70;1.70;;;16.40;59.40;;;;;;6647264;89;20288;-75
2021/04/28 21:23:21;;;;;;;3.65;1.55;;;16.10;60.30;;;;;;6650420;89;20200;-76
2021/04/28 21:33:22;;;;;;;3.03;1.47;;;15.70;65.20;;;;;;6650724;89;20345;-74
2021/04/28 21:43:22;;;;;;;4.17;1.63;;;15.30;69.80;;;;;;6650126;89;20541;-75
2021/04/28 21:53:23;;;;;;;5.35;1.60;;;15.00;72.50;;;;;;6651298;89;20227;-74
2021/04/28 22:03:23;;;;;;;2.60;1.52;;;14.80;78.00;;;;;;6649907;89;20632;-75
2021/04/28 22:13:24;;;;;;;7.20;1.73;;;14.50;87.20;;;;;;6650566;89;20241;-75
2021/04/28 22:23:28;;;;;;;3.10;1.50;;;14.40;91.40;;;;;;6646709;76;20210;-77
2021/04/28 22:33:29;;;;;;;2.97;1.65;;;14.20;94.00;;;;;;6666065;88;20660;-76
2021/04/28 22:43:29;;;;;;;5.85;1.90;;;14.10;95.80;;;;;;6701695;88;20209;-77
2021/04/28 22:53:30;;;;;;;3.80;1.83;;;14.00;97.40;;;;;;6705810;88;20618;-77
2021/04/28 23:03:30;;;;;;;3.42;1.77;;;13.80;98.70;;;;;;6705472;88;20192;-77
2021/04/28 23:13:31;;;;;;;4.20;1.73;;;13.80;99.20;;;;;;6706448;88;20195;-77
2021/04/28 23:23:31;;;;;;;3.72;1.55;;;13.70;99.40;;;;;;6705648;88;20244;-77
2021/04/28 23:33:32;;;;;;;3.05;1.52;;;13.70;99.90;;;;;;6706084;88;20325;-77
2021/04/28 23:43:32;;;;;;;3.67;1.80;;;13.70;99.90;;;;;;6705065;88;20210;-77
2021/04/28 23:53:33;;;;;;;3.05;1.92;;;13.70;99.90;;;;;;6702746;88;20201;-77
